Charles City, IA

4:00 PM CST on January 24, 2017 (GMT -0600)
Charles City Municipal | | Change Station
Active Advisory: Winter Storm Warning

Elev 1122 ft 43.07 °N, 92.61 °W | Updated 5 minutes ago

Overcast
Overcast
32 °F
Feels Like 24 °F
N
9
Wind Variable Wind from East

Today
High -- | Low -- °F
--% Chance of Precip.
Yesterday
High -- | Low -- °F
Precip. -- in
Pressure 29.74 in
Visibility 9.0 miles
Clouds Overcast 700 ft
Windchill 24 °F
Dew Point 32 °F
Humidity 100%
Rainfall 0.00 in
Snow Depth Not available.
7:33 AM 5:13 PM
Waning Crescent, 9% visible
METAR KCCY 242155Z AUTO 10008KT 9SM OVC007 00/00 A2974 RMK AO2
Pressure 29.74 in
Visibility 9.0 miles
Clouds Overcast 700 ft
Windchill 24 °F
Dew Point 32 °F
Humidity 100%
Rainfall 0.00 in
Snow Depth Not available.
7:33 AM 5:13 PM
Waning Crescent, 9% visible
METAR KCCY 242155Z AUTO 10008KT 9SM OVC007 00/00 A2974 RMK AO2

Get Your Daily Forecast Email!

Thanks for signing up!

Be on the lookout for a verification email in your inbox.

You'll start receiving the daily forecast at 8 AM.

×

10-Day Weather Forecast

Almanac

Astronomy

Jan. 24, 2017 Rise Set
Actual Time
Civil Twilight
Nautical Twilight
Astronomical Twilight
Moon
Length of Visible Light
Length of Day
Tomorrow will be .
, % of the Moon is Illuminated

Today's Extremes

State Highs State Lows

Community

WunderPhotos

Upload Photos

1,962,540 photos uploaded!

WunderBlog® & News

Nearby

Air Quality

  Air Quality AQ Index Pollutant
Not available.

Snow Depth

Station Depth Elevation

Earthquake Activity

City Distance Mag. Time & Date
Minimum magnitude displayed is 2.5.

Coastal Water Temperatures

Place Temperature

Stations

Nearby Weather Stations

Station Location Temp. Windchill Dew Point Humidity Wind Precip. Elev Updated Type
                   

Watches & Warnings

Winter Storm Warning
Issued: 3:41 PM CST Jan. 24, 2017 – National Weather Service

... Winter Storm Warning remains in effect until 6 PM CST
Wednesday...

* expect periods of snow to develop by 6 PM and then diminish
Wednesday afternoon.

* The heaviest snowfall rates will occur between 6 PM this
evening and midnight Wednesday.

* Total snow accumulations of 6 to 9 inches are expected.

* Look for significant reductions in visibility at times.

* Plan on difficult driving conditions... including during the
Wednesday morning commute.

Precautionary/preparedness actions...

A Winter Storm Warning means significant amounts of snow... sleet
and ice are expected. Strong winds are also possible. This will
make travel very hazardous or impossible. The latest Road
conditions for the state you are calling from can be obtained by
calling 5 1 1.